Time;durP1;ratioP1;P1;durP2;ratioP2;P2;SDS_P1;SDS_P2;PMS_P1;PMS_P2;Temp;Humidity;BMP_temperature;BMP_pressure;BME280_temperature;BME280_humidity;BME280_pressure;Samples;Min_cycle;Max_cycle;Signal;HPM_P1;HPM_P2
2022/03/14 00:00:10;;;;;;;11.13;6.40;;;4.00;71.00;;;;;;5036432;28;20411;-82
2022/03/14 00:02:36;;;;;;;10.70;5.60;;;4.00;71.10;;;;;;5019869;28;20415;-83
2022/03/14 00:05:05;;;;;;;11.27;5.80;;;4.00;71.00;;;;;;5020238;28;20485;-84
2022/03/14 00:07:34;;;;;;;13.57;6.43;;;4.10;70.90;;;;;;5024342;28;20172;-83
2022/03/14 00:10:01;;;;;;;10.67;5.43;;;4.10;70.90;;;;;;5040511;28;20429;-83
2022/03/14 00:12:28;;;;;;;12.00;6.33;;;4.10;70.80;;;;;;5057790;28;20484;-82
2022/03/14 00:14:56;;;;;;;12.50;6.50;;;4.10;70.70;;;;;;5038057;28;20426;-83
2022/03/14 00:17:24;;;;;;;10.53;5.63;;;4.10;70.60;;;;;;5037918;28;20423;-83
2022/03/14 00:19:50;;;;;;;8.30;5.40;;;4.10;70.70;;;;;;5046548;28;20443;-83
2022/03/14 00:22:18;;;;;;;12.17;5.37;;;4.00;70.80;;;;;;5018196;28;20424;-83
2022/03/14 00:24:43;;;;;;;9.97;5.70;;;4.00;70.90;;;;;;5018015;28;20467;-83
2022/03/14 00:27:09;;;;;;;12.23;6.13;;;4.00;70.60;;;;;;5039981;28;20419;-83
2022/03/14 00:29:34;;;;;;;9.83;5.47;;;4.00;70.50;;;;;;5037226;28;20168;-82
2022/03/14 00:32:00;;;;;;;11.10;5.73;;;4.00;70.50;;;;;;5038182;28;20245;-82
2022/03/14 00:34:27;;;;;;;14.10;6.20;;;4.00;70.50;;;;;;5037338;28;20753;-82
2022/03/14 00:36:53;;;;;;;12.37;5.50;;;4.00;70.90;;;;;;5023439;28;20272;-83
2022/03/14 00:39:18;;;;;;;11.20;5.87;;;3.90;70.90;;;;;;5035557;28;21042;-82
2022/03/14 00:41:44;;;;;;;12.07;5.33;;;3.90;70.90;;;;;;5034830;28;20177;-83
2022/03/14 00:44:12;;;;;;;12.03;6.03;;;3.80;71.20;;;;;;5017630;28;20176;-84
2022/03/14 00:46:38;;;;;;;11.20;5.97;;;3.80;71.30;;;;;;5017573;28;20168;-81
2022/03/14 00:49:03;;;;;;;9.90;5.90;;;3.80;71.00;;;;;;5036322;28;20451;-83
2022/03/14 00:51:29;;;;;;;14.30;5.50;;;3.80;71.30;;;;;;5017585;28;20430;-83
2022/03/14 00:53:54;;;;;;;9.00;5.37;;;3.70;71.20;;;;;;5031078;28;20211;-83
2022/03/14 00:56:20;;;;;;;15.37;6.27;;;3.70;71.30;;;;;;5036710;28;20625;-83
2022/03/14 00:58:46;;;;;;;10.07;6.03;;;3.70;71.20;;;;;;5036819;28;20789;-83
2022/03/14 01:01:11;;;;;;;11.40;5.67;;;3.70;71.40;;;;;;5037361;28;20497;-82
2022/03/14 01:03:37;;;;;;;12.10;6.47;;;3.70;71.40;;;;;;5036796;28;20180;-81
2022/03/14 01:06:03;;;;;;;12.60;6.00;;;3.70;71.20;;;;;;5036936;28;20273;-81
2022/03/14 01:08:29;;;;;;;8.50;5.27;;;3.70;71.20;;;;;;5037577;28;20219;-82
2022/03/14 01:10:55;;;;;;;12.13;5.70;;;3.70;70.90;;;;;;5037192;28;20183;-82
2022/03/14 01:13:20;;;;;;;14.10;6.60;;;3.70;70.70;;;;;;5036868;28;20418;-82
2022/03/14 01:15:47;;;;;;;13.83;5.97;;;3.70;70.40;;;;;;5037047;28;20203;-82
2022/03/14 01:18:13;;;;;;;10.50;5.73;;;3.70;70.30;;;;;;5037104;28;20751;-83
2022/03/14 01:20:39;;;;;;;13.43;6.10;;;3.70;70.10;;;;;;5036839;28;20501;-82
2022/03/14 01:23:05;;;;;;;13.83;5.97;;;3.70;70.30;;;;;;5037255;28;20426;-83
2022/03/14 01:25:30;;;;;;;13.27;5.80;;;3.70;70.10;;;;;;5036914;28;20474;-84
2022/03/14 01:27:56;;;;;;;12.07;6.60;;;3.70;70.10;;;;;;5024043;28;20180;-83
2022/03/14 01:30:22;;;;;;;13.87;6.67;;;3.80;69.80;;;;;;5016869;28;20187;-83
2022/03/14 01:32:49;;;;;;;11.33;5.50;;;3.80;70.00;;;;;;5016246;28;20184;-83
2022/03/14 01:35:17;;;;;;;11.23;5.43;;;3.80;69.80;;;;;;5016409;28;20446;-83
2022/03/14 01:37:43;;;;;;;10.80;5.90;;;3.80;69.80;;;;;;5016116;28;20427;-83
2022/03/14 01:40:10;;;;;;;10.73;5.50;;;3.80;69.90;;;;;;5016432;28;20411;-83
2022/03/14 01:42:38;;;;;;;10.87;5.77;;;3.80;69.80;;;;;;5016585;28;20422;-83
2022/03/14 01:45:04;;;;;;;11.07;5.73;;;3.80;69.60;;;;;;5033876;28;20434;-83
2022/03/14 01:47:30;;;;;;;12.87;5.87;;;3.80;69.80;;;;;;5016387;28;20838;-83
2022/03/14 01:49:57;;;;;;;9.93;6.20;;;3.80;69.60;;;;;;5033848;28;20423;-83
2022/03/14 01:52:23;;;;;;;10.70;5.67;;;3.80;69.70;;;;;;5016518;28;20172;-83
2022/03/14 01:54:48;;;;;;;10.50;5.20;;;3.80;69.70;;;;;;5016578;28;20521;-83
2022/03/14 01:57:14;;;;;;;13.60;5.93;;;3.80;69.70;;;;;;5034398;28;20173;-83
2022/03/14 01:59:40;;;;;;;12.27;5.63;;;3.80;69.60;;;;;;5015827;28;20193;-83
2022/03/14 02:02:06;;;;;;;10.67;6.13;;;3.70;69.80;;;;;;5016296;28;20418;-84
2022/03/14 02:04:32;;;;;;;8.17;5.50;;;3.70;69.90;;;;;;5015848;28;20192;-83
2022/03/14 02:06:58;;;;;;;11.60;7.07;;;3.70;69.80;;;;;;5016524;28;20414;-83
2022/03/14 02:09:24;;;;;;;10.70;5.80;;;3.70;70.00;;;;;;5016389;28;20181;-83
2022/03/14 02:11:56;;;;;;;12.20;6.47;;;3.60;70.10;;;;;;5016335;28;20777;-84
2022/03/14 02:14:22;;;;;;;12.13;5.80;;;3.60;70.10;;;;;;5016046;28;20200;-83
2022/03/14 02:16:49;;;;;;;11.40;5.87;;;3.50;70.00;;;;;;5017077;28;20424;-83
2022/03/14 02:19:14;;;;;;;11.83;5.83;;;3.50;70.30;;;;;;5016237;28;20454;-83
2022/03/14 02:21:40;;;;;;;11.03;4.63;;;3.40;70.50;;;;;;5016520;28;20414;-83
2022/03/14 02:24:06;;;;;;;12.03;5.67;;;3.40;70.60;;;;;;5016285;28;20478;-83
2022/03/14 02:26:35;;;;;;;11.07;5.43;;;3.30;70.50;;;;;;5016462;28;20235;-83
2022/03/14 02:29:01;;;;;;;14.90;5.63;;;3.30;70.30;;;;;;5015956;28;20188;-83
2022/03/14 02:31:26;;;;;;;12.80;5.93;;;3.30;70.40;;;;;;5034462;28;20533;-83
2022/03/14 02:33:52;;;;;;;11.67;5.47;;;3.30;70.40;;;;;;5016700;28;20191;-83
2022/03/14 02:36:17;;;;;;;11.20;5.70;;;3.30;70.60;;;;;;5016461;28;20184;-83
2022/03/14 02:38:43;;;;;;;14.10;5.40;;;3.30;70.30;;;;;;5017091;28;20623;-82
2022/03/14 02:41:10;;;;;;;13.03;5.73;;;3.30;70.30;;;;;;5015963;28;20275;-83
2022/03/14 02:43:36;;;;;;;10.77;5.70;;;3.30;70.10;;;;;;5016342;28;20469;-82
2022/03/14 02:46:02;;;;;;;10.57;4.87;;;3.30;70.00;;;;;;5016734;28;20818;-83
2022/03/14 02:48:28;;;;;;;11.27;6.00;;;3.30;70.00;;;;;;5016546;28;20418;-83
2022/03/14 02:50:53;;;;;;;11.60;5.30;;;3.30;70.10;;;;;;5016310;28;20419;-83
2022/03/14 02:53:20;;;;;;;10.00;6.67;;;3.20;70.00;;;;;;5016127;28;20245;-83
2022/03/14 02:55:45;;;;;;;10.53;5.63;;;3.20;70.00;;;;;;5016024;28;20254;-83
2022/03/14 02:58:11;;;;;;;7.90;4.90;;;3.20;69.90;;;;;;5015854;28;20455;-82
2022/03/14 03:00:37;;;;;;;9.80;5.67;;;3.20;70.30;;;;;;5016209;28;20168;-83
2022/03/14 03:03:04;;;;;;;9.80;5.13;;;3.10;70.40;;;;;;5015676;28;20195;-82
2022/03/14 03:05:31;;;;;;;11.80;5.80;;;3.10;70.50;;;;;;5015826;28;20221;-83
2022/03/14 03:08:00;;;;;;;9.93;5.33;;;3.10;70.40;;;;;;5016379;28;20415;-84
2022/03/14 03:10:28;;;;;;;8.93;4.53;;;3.00;70.60;;;;;;5017973;28;20421;-83
2022/03/14 03:12:54;;;;;;;9.03;4.97;;;3.00;70.60;;;;;;5019430;28;20473;-83
2022/03/14 03:15:19;;;;;;;13.10;5.80;;;3.00;70.40;;;;;;5036841;28;20427;-83
2022/03/14 03:17:45;;;;;;;11.03;5.40;;;3.00;70.30;;;;;;5019224;28;20509;-83
2022/03/14 03:20:12;;;;;;;11.60;5.23;;;3.00;70.20;;;;;;5018726;28;20704;-83
2022/03/14 03:22:38;;;;;;;11.50;5.33;;;3.00;70.00;;;;;;5036836;28;20186;-84
2022/03/14 03:25:05;;;;;;;12.17;4.97;;;3.00;69.90;;;;;;5019100;28;20479;-83
2022/03/14 03:27:32;;;;;;;10.20;5.70;;;3.00;69.80;;;;;;5019207;28;20399;-82
2022/03/14 03:30:00;;;;;;;13.63;5.17;;;3.00;70.00;;;;;;5036626;28;20411;-83
2022/03/14 03:32:26;;;;;;;9.77;5.30;;;3.00;70.50;;;;;;5018815;28;20435;-83
2022/03/14 03:34:52;;;;;;;13.97;5.27;;;2.90;70.40;;;;;;5018799;28;21214;-83
2022/03/14 03:37:17;;;;;;;11.90;5.77;;;2.90;70.70;;;;;;5019245;28;20176;-83
2022/03/14 03:39:43;;;;;;;12.27;5.63;;;2.90;70.60;;;;;;5037340;28;20538;-83
2022/03/14 03:42:08;;;;;;;10.17;4.37;;;2.80;71.00;;;;;;5018909;28;20168;-83
2022/03/14 03:44:34;;;;;;;12.83;5.57;;;2.80;71.20;;;;;;5036003;28;20200;-82
2022/03/14 03:47:00;;;;;;;14.77;6.03;;;2.70;71.50;;;;;;5019096;28;20175;-83
2022/03/14 03:49:26;;;;;;;15.17;6.10;;;2.60;71.30;;;;;;5018389;28;20975;-83
2022/03/14 03:51:52;;;;;;;10.70;5.70;;;2.60;71.40;;;;;;5018275;28;20423;-83
2022/03/14 03:54:17;;;;;;;16.93;7.20;;;2.60;71.90;;;;;;5018286;28;20223;-83
2022/03/14 03:56:43;;;;;;;11.13;5.10;;;2.50;72.30;;;;;;5018324;28;20192;-82
2022/03/14 03:59:09;;;;;;;10.10;5.43;;;2.40;72.80;;;;;;5018611;28;20296;-82
2022/03/14 04:01:34;;;;;;;9.10;4.83;;;2.30;72.90;;;;;;5018476;28;20188;-84
2022/03/14 04:04:01;;;;;;;10.77;5.50;;;2.20;73.00;;;;;;5018231;28;20259;-83
2022/03/14 04:06:30;;;;;;;10.60;6.30;;;2.20;73.10;;;;;;5018818;28;20966;-82
2022/03/14 04:09:00;;;;;;;14.33;6.00;;;2.00;73.70;;;;;;5018467;28;20442;-83
2022/03/14 04:11:26;;;;;;;9.13;5.10;;;1.90;74.20;;;;;;5018362;28;20415;-82
2022/03/14 04:13:54;;;;;;;12.27;6.13;;;1.70;74.10;;;;;;5036550;28;20411;-81
2022/03/14 04:16:22;;;;;;;13.07;6.20;;;1.60;74.10;;;;;;5017816;28;20423;-80
2022/03/14 04:18:47;;;;;;;10.77;5.77;;;1.60;74.20;;;;;;5036696;28;20545;-81
2022/03/14 04:21:14;;;;;;;16.30;5.60;;;1.50;74.40;;;;;;5017799;28;20989;-83
2022/03/14 04:23:39;;;;;;;12.57;5.60;;;1.50;74.20;;;;;;5018561;28;20195;-83
2022/03/14 04:26:05;;;;;;;12.00;6.57;;;1.50;75.10;;;;;;5036762;28;20463;-81
2022/03/14 04:28:30;;;;;;;8.47;5.33;;;1.40;75.30;;;;;;5018306;28;20610;-81
2022/03/14 04:30:57;;;;;;;6.90;4.43;;;1.30;75.20;;;;;;5036615;28;20231;-82
2022/03/14 04:33:23;;;;;;;10.83;5.00;;;1.30;75.40;;;;;;5036046;28;20259;-82
2022/03/14 04:35:49;;;;;;;10.60;5.57;;;1.30;75.00;;;;;;5018295;28;20467;-82
2022/03/14 04:38:16;;;;;;;9.57;5.70;;;1.30;74.70;;;;;;5018481;28;20529;-83
2022/03/14 04:40:42;;;;;;;10.10;6.30;;;1.30;74.70;;;;;;5036810;28;20176;-82
2022/03/14 04:43:09;;;;;;;11.77;5.67;;;1.30;74.80;;;;;;5018985;28;21091;-83
2022/03/14 04:45:36;;;;;;;13.63;6.20;;;1.30;74.80;;;;;;5035825;28;20229;-83
2022/03/14 04:48:02;;;;;;;11.43;5.50;;;1.30;75.20;;;;;;5056187;28;20445;-82
2022/03/14 04:50:28;;;;;;;14.00;5.87;;;1.30;75.00;;;;;;5055336;28;20441;-81
2022/03/14 04:52:54;;;;;;;11.07;5.70;;;1.30;74.70;;;;;;5037936;28;20450;-83
2022/03/14 04:55:20;;;;;;;21.07;6.07;;;1.30;74.90;;;;;;5037455;28;20507;-83
2022/03/14 04:57:45;;;;;;;9.87;5.53;;;1.30;75.60;;;;;;5055685;28;20199;-83
2022/03/14 05:00:12;;;;;;;12.40;5.67;;;1.20;75.20;;;;;;5056247;28;20507;-82
2022/03/14 05:02:37;;;;;;;10.20;5.00;;;1.20;75.20;;;;;;5038437;28;20176;-83
2022/03/14 05:05:03;;;;;;;14.07;6.00;;;1.20;75.60;;;;;;5037999;28;20521;-83
2022/03/14 05:07:29;;;;;;;9.90;6.10;;;1.10;75.80;;;;;;5038344;28;20184;-82
2022/03/14 05:09:54;;;;;;;12.93;5.90;;;1.10;75.80;;;;;;5038849;28;20414;-82
2022/03/14 05:12:20;;;;;;;16.63;6.17;;;1.00;75.70;;;;;;5038597;28;20168;-83
2022/03/14 05:14:50;;;;;;;9.53;6.03;;;1.00;75.80;;;;;;5056464;28;20192;-83
2022/03/14 05:17:16;;;;;;;13.70;5.17;;;1.10;75.50;;;;;;5039040;28;20421;-82
2022/03/14 05:19:42;;;;;;;12.13;5.47;;;1.10;75.50;;;;;;5038866;28;20458;-82
2022/03/14 05:22:07;;;;;;;11.40;6.00;;;1.10;75.50;;;;;;5038886;28;20414;-83
2022/03/14 05:24:33;;;;;;;11.30;5.70;;;1.20;75.50;;;;;;5038740;28;20250;-82
2022/03/14 05:26:58;;;;;;;11.93;5.30;;;1.20;75.80;;;;;;5039119;28;20261;-82
2022/03/14 05:29:24;;;;;;;14.40;5.90;;;1.20;76.00;;;;;;5039291;28;20565;-83
2022/03/14 05:31:49;;;;;;;12.40;5.87;;;1.20;76.40;;;;;;5039181;28;20178;-82
2022/03/14 05:34:15;;;;;;;13.90;6.07;;;1.10;76.40;;;;;;5036903;28;20226;-83
2022/03/14 05:36:41;;;;;;;11.47;5.80;;;1.10;76.40;;;;;;5019700;28;20181;-82
2022/03/14 05:39:07;;;;;;;11.17;5.73;;;1.10;77.30;;;;;;5019830;28;20211;-82
2022/03/14 05:41:32;;;;;;;10.07;5.30;;;1.00;78.00;;;;;;5019111;28;20181;-82
2022/03/14 05:43:58;;;;;;;9.97;6.40;;;0.90;78.40;;;;;;5019159;28;21160;-82
2022/03/14 05:46:23;;;;;;;8.67;5.60;;;0.90;78.30;;;;;;5037208;28;20235;-80
2022/03/14 05:48:49;;;;;;;12.30;5.37;;;0.80;78.80;;;;;;5037580;28;20186;-82
2022/03/14 05:51:15;;;;;;;13.20;6.33;;;0.70;78.80;;;;;;5037898;28;20538;-81
2022/03/14 05:53:40;;;;;;;11.47;6.73;;;0.60;79.00;;;;;;5019609;28;20175;-82
2022/03/14 05:56:06;;;;;;;14.87;6.00;;;0.60;79.30;;;;;;5019228;28;20513;-82
2022/03/14 05:58:31;;;;;;;10.90;6.27;;;0.60;79.10;;;;;;5019280;28;20737;-82
2022/03/14 06:00:58;;;;;;;12.13;5.93;;;0.50;79.50;;;;;;5037586;28;20179;-82
2022/03/14 06:03:24;;;;;;;13.80;6.60;;;0.60;79.60;;;;;;5020036;28;20259;-82
2022/03/14 06:05:50;;;;;;;12.07;5.57;;;0.60;79.70;;;;;;5019917;28;20512;-82
2022/03/14 06:08:17;;;;;;;15.00;6.33;;;0.70;79.90;;;;;;5019173;28;20180;-81
2022/03/14 06:10:45;;;;;;;16.13;5.90;;;0.70;79.70;;;;;;5019933;28;20422;-82
2022/03/14 06:13:13;;;;;;;10.90;6.60;;;0.70;79.60;;;;;;5019104;28;20430;-82
2022/03/14 06:15:39;;;;;;;15.33;6.00;;;0.80;79.60;;;;;;5019548;28;20856;-82
2022/03/14 06:18:04;;;;;;;15.43;6.50;;;0.90;79.50;;;;;;5018935;28;20458;-82
2022/03/14 06:20:30;;;;;;;18.83;6.53;;;0.90;79.80;;;;;;5019267;28;20886;-82
2022/03/14 06:22:55;;;;;;;9.63;6.60;;;1.00;79.90;;;;;;5019065;28;20180;-81
2022/03/14 06:25:21;;;;;;;11.50;6.50;;;1.00;79.80;;;;;;5018652;28;20236;-83
2022/03/14 06:27:46;;;;;;;11.17;6.13;;;1.10;79.70;;;;;;5018611;28;20176;-82
2022/03/14 06:30:13;;;;;;;10.97;6.40;;;1.10;79.60;;;;;;5019409;28;20187;-82
2022/03/14 06:32:41;;;;;;;16.87;5.80;;;1.20;79.40;;;;;;5019054;28;20181;-84
2022/03/14 06:35:10;;;;;;;10.30;6.10;;;1.30;79.40;;;;;;5018746;28;20933;-82
2022/03/14 06:37:35;;;;;;;13.00;7.40;;;1.40;79.20;;;;;;5019152;28;20925;-82
2022/03/14 06:40:02;;;;;;;11.97;6.27;;;1.50;79.30;;;;;;5018583;28;20434;-83
2022/03/14 06:42:29;;;;;;;15.90;6.57;;;1.60;79.10;;;;;;5018537;28;20177;-83
2022/03/14 06:44:58;;;;;;;14.20;6.33;;;1.80;78.30;;;;;;5020142;28;20463;-83
2022/03/14 06:47:24;;;;;;;18.60;7.37;;;1.90;78.30;;;;;;5022918;28;20801;-84
2022/03/14 06:49:49;;;;;;;15.93;7.43;;;2.10;78.00;;;;;;5022693;28;20407;-83
2022/03/14 06:52:16;;;;;;;16.20;6.70;;;2.30;77.50;;;;;;5021869;28;20184;-83
2022/03/14 06:54:41;;;;;;;10.13;6.90;;;2.50;76.70;;;;;;5021835;28;20249;-83
2022/03/14 06:57:08;;;;;;;19.20;6.40;;;2.70;76.20;;;;;;5022155;28;20450;-83
2022/03/14 06:59:34;;;;;;;9.60;5.83;;;2.90;75.80;;;;;;5022056;28;20219;-81
2022/03/14 07:02:01;;;;;;;13.13;6.60;;;3.10;75.50;;;;;;5022330;28;20407;-82
2022/03/14 07:04:27;;;;;;;10.50;6.30;;;3.40;75.10;;;;;;5021809;28;20449;-81
2022/03/14 07:06:53;;;;;;;14.13;6.53;;;3.60;74.30;;;;;;5022530;28;20476;-82
2022/03/14 07:09:18;;;;;;;19.00;7.83;;;3.70;74.80;;;;;;5021821;28;20427;-82
2022/03/14 07:11:44;;;;;;;17.30;6.90;;;3.90;74.50;;;;;;5018630;28;20427;-83
2022/03/14 07:14:10;;;;;;;21.00;7.83;;;4.00;73.80;;;;;;5002373;28;20185;-82
2022/03/14 07:16:35;;;;;;;13.10;6.87;;;4.10;73.70;;;;;;5039223;28;20257;-83
2022/03/14 07:19:01;;;;;;;10.80;5.93;;;4.30;74.10;;;;;;5022717;28;20303;-83
2022/03/14 07:21:29;;;;;;;14.63;6.37;;;4.40;73.50;;;;;;5021895;28;20173;-82
2022/03/14 07:23:56;;;;;;;16.40;7.33;;;4.60;73.30;;;;;;5022056;28;20172;-82
2022/03/14 07:26:22;;;;;;;16.60;7.40;;;4.70;73.00;;;;;;5021671;28;20485;-83
2022/03/14 07:28:48;;;;;;;19.27;7.00;;;4.90;72.30;;;;;;5038879;28;20411;-83
2022/03/14 07:31:15;;;;;;;13.43;8.10;;;5.00;72.30;;;;;;5021742;28;20176;-83
2022/03/14 07:33:43;;;;;;;13.23;6.70;;;5.10;71.90;;;;;;5022159;28;20415;-83
2022/03/14 07:36:09;;;;;;;15.37;7.40;;;5.30;71.70;;;;;;5022256;28;20786;-83
2022/03/14 07:38:34;;;;;;;15.00;7.37;;;5.40;71.40;;;;;;5022144;28;20557;-82
2022/03/14 07:41:00;;;;;;;17.33;7.00;;;5.60;71.80;;;;;;5029311;28;20438;-83
2022/03/14 07:43:25;;;;;;;15.40;7.47;;;5.70;71.30;;;;;;5029955;28;20652;-84
2022/03/14 07:45:51;;;;;;;15.67;7.60;;;5.80;70.50;;;;;;5007160;28;20735;-84
2022/03/14 07:48:16;;;;;;;10.87;6.27;;;6.00;70.50;;;;;;5008296;28;20176;-84
2022/03/14 07:50:42;;;;;;;17.53;7.57;;;6.10;70.00;;;;;;5002334;28;20568;-81
2022/03/14 07:53:08;;;;;;;21.60;7.40;;;6.20;69.70;;;;;;5001439;28;20215;-81
2022/03/14 07:55:33;;;;;;;12.53;6.80;;;6.40;69.50;;;;;;5000214;28;20196;-80
2022/03/14 07:57:59;;;;;;;11.67;7.27;;;6.50;68.80;;;;;;5000219;28;20610;-82
2022/03/14 08:00:24;;;;;;;10.77;6.10;;;6.60;68.80;;;;;;5023199;28;20275;-82
2022/03/14 08:02:50;;;;;;;16.70;7.03;;;6.70;68.00;;;;;;5023119;28;20177;-82
2022/03/14 08:05:18;;;;;;;18.13;7.40;;;6.80;67.90;;;;;;5020601;28;20200;-82
2022/03/14 08:07:46;;;;;;;12.53;6.40;;;7.00;67.60;;;;;;5025647;28;20168;-83
2022/03/14 08:10:17;;;;;;;13.47;8.00;;;7.20;67.90;;;;;;5056651;28;20417;-83
2022/03/14 08:12:46;;;;;;;18.50;7.80;;;7.40;66.90;;;;;;5039272;28;20420;-82
2022/03/14 08:15:17;;;;;;;11.47;6.27;;;7.60;66.80;;;;;;5039012;28;20442;-82
2022/03/14 08:17:43;;;;;;;16.40;7.60;;;7.80;66.90;;;;;;5032850;28;20852;-83
2022/03/14 08:20:09;;;;;;;14.50;7.10;;;8.10;66.80;;;;;;5032090;28;20518;-83
2022/03/14 08:22:35;;;;;;;16.67;8.20;;;8.30;65.20;;;;;;5034735;28;20203;-84
2022/03/14 08:25:01;;;;;;;23.70;8.07;;;8.40;64.40;;;;;;5027215;28;20994;-83
2022/03/14 08:27:26;;;;;;;13.80;6.63;;;8.60;64.70;;;;;;5036648;28;20423;-83
2022/03/14 08:29:52;;;;;;;17.10;7.90;;;8.70;64.30;;;;;;5036772;28;20714;-83
2022/03/14 08:32:18;;;;;;;13.63;6.83;;;8.90;63.50;;;;;;5036364;28;20563;-84
2022/03/14 08:34:44;;;;;;;14.63;7.70;;;8.90;62.90;;;;;;5012929;28;20247;-83
2022/03/14 08:37:10;;;;;;;12.93;7.10;;;8.90;63.20;;;;;;5013679;28;20423;-84
2022/03/14 08:39:35;;;;;;;15.50;7.10;;;9.00;62.80;;;;;;5013072;28;20448;-84
2022/03/14 08:42:04;;;;;;;16.47;7.63;;;9.00;62.50;;;;;;5013370;28;20263;-83
2022/03/14 08:44:30;;;;;;;19.53;8.00;;;9.00;62.70;;;;;;5013404;28;20196;-82
2022/03/14 08:46:55;;;;;;;16.43;7.17;;;9.00;62.70;;;;;;5013447;28;20409;-83
2022/03/14 08:49:21;;;;;;;14.40;7.27;;;9.10;63.20;;;;;;5013764;28;20192;-83
2022/03/14 08:51:46;;;;;;;16.17;7.50;;;9.10;62.80;;;;;;5053415;28;20244;-83
2022/03/14 08:54:12;;;;;;;15.40;7.27;;;9.10;63.10;;;;;;5035517;28;20183;-83
2022/03/14 08:56:37;;;;;;;14.20;7.30;;;9.20;62.90;;;;;;5035193;28;20233;-83
2022/03/14 08:59:04;;;;;;;14.33;7.70;;;9.30;63.00;;;;;;5035898;28;20230;-83
2022/03/14 09:01:30;;;;;;;16.10;7.37;;;9.30;62.60;;;;;;5035656;28;20180;-83
2022/03/14 09:03:56;;;;;;;15.80;7.67;;;9.30;62.90;;;;;;5035573;28;20418;-82
2022/03/14 09:06:21;;;;;;;15.00;7.23;;;9.30;63.30;;;;;;5035256;28;20429;-82
2022/03/14 09:08:47;;;;;;;16.80;7.50;;;9.30;63.00;;;;;;5035087;28;20245;-83
2022/03/14 09:11:13;;;;;;;12.80;7.10;;;9.30;63.00;;;;;;5035494;28;20208;-84
2022/03/14 09:13:39;;;;;;;12.50;6.73;;;9.30;63.10;;;;;;5035803;28;20305;-83
2022/03/14 09:16:08;;;;;;;11.57;6.07;;;9.30;62.50;;;;;;5036113;28;20466;-83
2022/03/14 09:18:34;;;;;;;16.77;8.10;;;9.20;63.20;;;;;;5035659;28;20260;-83
2022/03/14 09:21:00;;;;;;;14.40;6.87;;;9.30;63.60;;;;;;5036047;28;20444;-83
2022/03/14 09:23:26;;;;;;;14.03;5.90;;;9.40;63.20;;;;;;5035722;28;20785;-83
2022/03/14 09:25:52;;;;;;;17.07;7.70;;;9.40;63.20;;;;;;5033880;28;20255;-84
2022/03/14 09:28:17;;;;;;;17.20;7.43;;;9.40;63.20;;;;;;5016111;28;20245;-83
2022/03/14 09:30:44;;;;;;;20.93;7.73;;;9.40;63.10;;;;;;5015914;28;20184;-83
2022/03/14 09:33:09;;;;;;;17.40;7.93;;;9.40;63.30;;;;;;5015680;28;20230;-83
2022/03/14 09:35:35;;;;;;;13.13;8.30;;;9.40;63.00;;;;;;5015779;28;20858;-83
2022/03/14 09:38:00;;;;;;;14.53;8.07;;;9.30;63.00;;;;;;5033418;28;20195;-83
2022/03/14 09:40:31;;;;;;;17.50;7.90;;;9.30;63.30;;;;;;5016154;28;20247;-83
2022/03/14 09:42:59;;;;;;;19.70;8.50;;;9.40;63.80;;;;;;5016595;28;20173;-82
2022/03/14 09:45:34;;;;;;;15.20;8.00;;;9.50;63.60;;;;;;5033499;28;20808;-83
2022/03/14 09:48:00;;;;;;;17.13;8.77;;;9.60;63.70;;;;;;5015212;28;20410;-83
2022/03/14 09:50:26;;;;;;;16.00;7.00;;;9.70;64.30;;;;;;5015144;28;20421;-83
2022/03/14 09:52:55;;;;;;;28.07;7.60;;;9.90;64.40;;;;;;5015413;28;20824;-82
2022/03/14 09:55:21;;;;;;;17.70;7.63;;;10.00;64.10;;;;;;5015785;28;20473;-83
2022/03/14 09:57:48;;;;;;;18.23;7.50;;;10.10;64.20;;;;;;5034873;28;20465;-83
2022/03/14 10:00:14;;;;;;;15.13;7.47;;;10.20;64.40;;;;;;5015550;28;20476;-83
2022/03/14 10:02:40;;;;;;;17.57;7.87;;;10.30;64.20;;;;;;5015543;28;20420;-83
2022/03/14 10:05:08;;;;;;;29.07;12.60;;;10.40;63.60;;;;;;5033219;28;20997;-83
2022/03/14 10:07:38;;;;;;;22.97;9.90;;;10.40;63.40;;;;;;5014750;28;20419;-84
2022/03/14 10:10:05;;;;;;;19.27;8.97;;;10.50;63.50;;;;;;5015710;28;21013;-83
2022/03/14 10:12:32;;;;;;;19.60;9.20;;;10.60;64.00;;;;;;5016011;28;20411;-84
2022/03/14 10:15:02;;;;;;;17.90;9.37;;;10.50;63.10;;;;;;5032977;28;21114;-82
2022/03/14 10:17:32;;;;;;;15.90;9.60;;;10.50;63.10;;;;;;5015383;28;20621;-83
2022/03/14 10:20:00;;;;;;;13.03;7.30;;;10.50;63.00;;;;;;5016395;28;20470;-84
2022/03/14 10:22:33;;;;;;;17.77;8.23;;;10.60;63.60;;;;;;5018497;28;20415;-83
2022/03/14 10:25:13;;;;;;;17.17;8.30;;;10.70;63.30;;;;;;5030824;28;20473;-84
2022/03/14 10:27:41;;;;;;;17.17;9.47;;;10.70;63.30;;;;;;5037980;28;20414;-83
2022/03/14 10:30:23;;;;;;;17.77;9.37;;;10.60;62.70;;;;;;5038559;28;20414;-83
2022/03/14 10:32:49;;;;;;;15.30;8.37;;;10.60;63.20;;;;;;5038279;28;20896;-83
2022/03/14 10:35:22;;;;;;;16.43;8.37;;;10.70;63.80;;;;;;5038296;28;20469;-83
2022/03/14 10:38:02;;;;;;;18.23;8.57;;;10.70;63.10;;;;;;5038407;28;20180;-84
2022/03/14 10:40:30;;;;;;;14.90;7.43;;;10.70;63.80;;;;;;5038687;28;20429;-84
2022/03/14 10:42:56;;;;;;;19.03;9.10;;;10.80;64.00;;;;;;5038408;28;20525;-83
2022/03/14 10:45:21;;;;;;;16.63;9.10;;;10.90;63.90;;;;;;5038398;28;20480;-84
2022/03/14 10:47:56;;;;;;;19.97;9.10;;;10.90;64.10;;;;;;5037871;28;20623;-83
2022/03/14 10:50:33;;;;;;;17.60;8.40;;;11.00;63.80;;;;;;5038225;28;20176;-84
2022/03/14 10:53:18;;;;;;;21.70;9.17;;;11.00;64.00;;;;;;5038337;28;20418;-82
2022/03/14 10:55:46;;;;;;;20.20;9.53;;;10.90;64.10;;;;;;5038004;28;20438;-83
2022/03/14 10:58:13;;;;;;;17.73;8.80;;;10.90;64.40;;;;;;5055738;28;21126;-82
2022/03/14 11:00:52;;;;;;;17.33;8.00;;;10.90;64.80;;;;;;5037725;28;20567;-83
2022/03/14 11:03:29;;;;;;;15.73;8.40;;;10.80;64.80;;;;;;5056027;28;20446;-83
2022/03/14 11:05:58;;;;;;;18.87;9.13;;;10.80;65.20;;;;;;5025923;28;20446;-81
2022/03/14 11:08:42;;;;;;;19.20;10.47;;;10.90;65.30;;;;;;5012595;28;20424;-81
2022/03/14 11:11:16;;;;;;;19.37;8.67;;;10.90;65.00;;;;;;5003846;28;20428;-84
2022/03/14 11:13:47;;;;;;;18.13;9.27;;;10.90;65.40;;;;;;5019392;28;20991;-83
2022/03/14 11:16:22;;;;;;;18.73;8.83;;;10.90;65.80;;;;;;5018416;28;20523;-83
2022/03/14 11:18:50;;;;;;;16.77;8.20;;;10.90;65.40;;;;;;5017374;28;20505;-83
2022/03/14 11:21:19;;;;;;;15.67;9.00;;;10.90;66.40;;;;;;5035115;28;20437;-82
2022/03/14 11:23:48;;;;;;;16.73;8.63;;;11.00;67.20;;;;;;5019653;28;20940;-83
2022/03/14 11:26:17;;;;;;;20.80;10.30;;;11.10;68.80;;;;;;5036856;28;20471;-82
2022/03/14 11:28:45;;;;;;;19.50;8.80;;;11.20;70.30;;;;;;5040738;28;20433;-82
2022/03/14 11:31:11;;;;;;;19.07;8.53;;;11.20;71.70;;;;;;5028369;28;20418;-83
2022/03/14 11:33:37;;;;;;;15.57;7.97;;;11.20;71.90;;;;;;5054541;28;20425;-83
2022/03/14 11:36:04;;;;;;;20.07;10.47;;;11.20;72.90;;;;;;5037249;28;20219;-83
2022/03/14 11:38:30;;;;;;;16.63;8.57;;;11.20;73.30;;;;;;5055000;28;20206;-83
2022/03/14 11:40:57;;;;;;;16.20;8.57;;;11.20;73.40;;;;;;5037168;28;20505;-83
2022/03/14 11:43:23;;;;;;;19.00;9.63;;;11.20;73.50;;;;;;5036614;28;20434;-83
2022/03/14 11:45:50;;;;;;;20.57;8.60;;;11.30;73.90;;;;;;5037217;28;20429;-83
2022/03/14 11:48:16;;;;;;;19.33;9.27;;;11.30;74.00;;;;;;5037195;28;20172;-83
2022/03/14 11:50:43;;;;;;;23.47;9.83;;;11.30;74.00;;;;;;5054877;28;20421;-83
2022/03/14 11:53:09;;;;;;;20.17;8.67;;;11.20;74.40;;;;;;5037187;28;20924;-82
2022/03/14 11:55:48;;;;;;;23.53;8.97;;;11.20;74.40;;;;;;5036818;28;20449;-83
2022/03/14 11:58:41;;;;;;;16.90;8.57;;;11.20;74.50;;;;;;5054576;28;20187;-83
2022/03/14 12:01:47;;;;;;;16.50;8.80;;;11.20;74.70;;;;;;5054740;28;20399;-82
2022/03/14 12:04:30;;;;;;;26.60;8.43;;;11.30;74.70;;;;;;5030853;28;20813;-82
2022/03/14 12:06:57;;;;;;;18.50;9.50;;;11.30;74.20;;;;;;5054880;28;20403;-83
2022/03/14 12:09:25;;;;;;;23.13;10.87;;;11.40;74.20;;;;;;5054251;28;20410;-83
2022/03/14 12:11:52;;;;;;;19.83;9.57;;;11.50;74.40;;;;;;5054135;28;20459;-83
2022/03/14 12:14:40;;;;;;;18.67;9.20;;;11.60;73.90;;;;;;5036575;28;20447;-82
2022/03/14 12:17:15;;;;;;;18.10;9.33;;;11.60;73.80;;;;;;5036142;28;20411;-83
2022/03/14 12:19:42;;;;;;;15.50;8.97;;;11.60;74.10;;;;;;5053886;28;20461;-83
2022/03/14 12:22:13;;;;;;;19.43;9.50;;;11.60;74.50;;;;;;5036350;28;20415;-82
2022/03/14 12:24:38;;;;;;;22.60;10.73;;;11.60;75.10;;;;;;5026179;28;20466;-83
2022/03/14 12:27:30;;;;;;;17.50;9.37;;;11.70;76.00;;;;;;5015939;28;20423;-83
2022/03/14 12:29:57;;;;;;;15.63;8.70;;;11.70;77.00;;;;;;5008030;28;20271;-83
2022/03/14 12:32:41;;;;;;;19.60;8.83;;;11.80;77.60;;;;;;5015896;28;20423;-83
2022/03/14 12:35:27;;;;;;;15.43;8.20;;;11.90;77.90;;;;;;5015640;28;20522;-83
2022/03/14 12:38:21;;;;;;;14.73;8.47;;;11.80;78.10;;;;;;5015720;28;20419;-83
2022/03/14 12:40:48;;;;;;;21.30;9.47;;;11.80;78.20;;;;;;5015680;28;20423;-83
2022/03/14 12:43:25;;;;;;;15.67;7.40;;;11.90;79.10;;;;;;5015680;28;20451;-83
2022/03/14 12:45:56;;;;;;;17.03;7.60;;;11.80;79.80;;;;;;5034110;28;20434;-83